createdAt,value
2022-12-12T00:01:21.745Z,99195.09
2022-12-12T00:03:49.454Z,99200.09
2022-12-12T00:06:17.114Z,99200.16
2022-12-12T00:08:44.654Z,99200.28
2022-12-12T00:11:13.748Z,99196.16
2022-12-12T00:13:41.656Z,99201.41
2022-12-12T00:16:11.347Z,99205.66
2022-12-12T00:18:41.258Z,99205.31
2022-12-12T00:21:15.378Z,99191.44
2022-12-12T00:23:43.353Z,99189.41
2022-12-12T00:26:17.387Z,99195.84
2022-12-12T00:28:44.949Z,99196.34
2022-12-12T00:31:14.367Z,99189.88
2022-12-12T00:33:43.545Z,99198.34
2022-12-12T00:36:12.519Z,99197.16
2022-12-12T00:38:40.292Z,99199.63
2022-12-12T00:41:09.259Z,99198.00
2022-12-12T00:43:36.975Z,99192.09
2022-12-12T00:46:05.309Z,99201.50
2022-12-12T00:48:34.444Z,99197.09
2022-12-12T00:51:08.917Z,99201.47
2022-12-12T00:53:37.248Z,99195.44
2022-12-12T00:56:05.838Z,99199.81
2022-12-12T00:58:34.607Z,99200.78
2022-12-12T01:01:06.394Z,99200.53
2022-12-12T01:03:37.283Z,99201.22
2022-12-12T01:06:05.658Z,99200.63
2022-12-12T01:08:33.497Z,99198.94
2022-12-12T01:11:01.084Z,99203.44
2022-12-12T01:13:29.122Z,99206.13
2022-12-12T01:15:56.899Z,99197.84
2022-12-12T01:18:24.559Z,99204.69
2022-12-12T01:20:53.549Z,99213.91
2022-12-12T01:23:21.121Z,99205.19
2022-12-12T01:25:48.696Z,99206.75
2022-12-12T01:28:16.364Z,99207.31
2022-12-12T01:30:43.957Z,99215.31
2022-12-12T01:33:11.541Z,99210.72
2022-12-12T01:35:39.144Z,99218.63
2022-12-12T01:38:08.071Z,99215.75
2022-12-12T01:40:35.923Z,99218.25
2022-12-12T01:43:03.518Z,99220.75
2022-12-12T01:46:20.217Z,99218.69
2022-12-12T01:48:53.359Z,99220.19
2022-12-12T01:51:23.274Z,99227.72
2022-12-12T01:53:58.182Z,99226.72
2022-12-12T01:56:26.441Z,99221.97
2022-12-12T01:58:55.310Z,99232.75
2022-12-12T02:01:24.182Z,99238.03
2022-12-12T02:03:51.972Z,99230.81
2022-12-12T02:06:23.467Z,99225.19
2022-12-12T02:08:55.826Z,99218.19
2022-12-12T02:11:23.455Z,99217.50
2022-12-12T02:13:51.889Z,99220.00
2022-12-12T02:16:29.782Z,99219.13
2022-12-12T02:19:07.951Z,99215.44
2022-12-12T02:21:44.194Z,99223.66
2022-12-12T02:25:01.813Z,99217.47
2022-12-12T02:28:00.474Z,99219.84
2022-12-12T02:30:41.250Z,99222.19
2022-12-12T02:33:22.556Z,99217.41
2022-12-12T02:36:00.458Z,99219.19
2022-12-12T02:38:32.425Z,99215.34
2022-12-12T02:41:10.189Z,99213.78
2022-12-12T02:43:42.763Z,99210.84
2022-12-12T02:46:16.136Z,99212.25
2022-12-12T02:48:50.643Z,99215.13
2022-12-12T02:51:20.169Z,99214.72
2022-12-12T02:53:47.839Z,99213.91
2022-12-12T02:56:48.546Z,99218.13
2022-12-12T02:59:21.743Z,99207.91
2022-12-12T03:02:30.818Z,99220.44
2022-12-12T03:05:46.223Z,99209.44
2022-12-12T03:08:31.784Z,99206.75
2022-12-12T03:11:03.446Z,99217.22
2022-12-12T03:13:38.723Z,99222.81
2022-12-12T03:16:18.940Z,99227.59
2022-12-12T03:18:57.737Z,99238.06
2022-12-12T03:21:36.419Z,99240.03
2022-12-12T03:24:07.828Z,99244.81
2022-12-12T03:26:44.292Z,99236.19
2022-12-12T03:29:16.202Z,99245.31
2022-12-12T03:31:47.898Z,99240.75
2022-12-12T03:34:20.155Z,99244.75
2022-12-12T03:36:53.162Z,99239.50
2022-12-12T03:39:27.484Z,99247.78
2022-12-12T03:41:59.328Z,99238.44
2022-12-12T03:44:39.785Z,99246.25
2022-12-12T03:47:13.218Z,99247.13
2022-12-12T03:49:46.447Z,99249.53
2022-12-12T03:52:21.578Z,99253.91
2022-12-12T03:54:54.813Z,99249.50
2022-12-12T03:57:28.555Z,99254.19
2022-12-12T04:00:02.470Z,99255.31
2022-12-12T04:02:35.928Z,99253.34
2022-12-12T04:05:14.886Z,99260.50
2022-12-12T04:07:49.521Z,99260.16
2022-12-12T04:10:34.947Z,99250.63
2022-12-12T04:13:11.925Z,99256.94
2022-12-12T04:15:52.692Z,99249.84
2022-12-12T04:18:28.010Z,99241.03
2022-12-12T04:21:33.065Z,99241.41
2022-12-12T04:24:14.184Z,99242.81
2022-12-12T04:26:47.450Z,99251.41
2022-12-12T04:29:30.266Z,99242.72
2022-12-12T04:32:01.856Z,99255.28
2022-12-12T04:34:37.987Z,99249.59
2022-12-12T04:37:07.782Z,99245.13
2022-12-12T04:39:39.590Z,99251.97
2022-12-12T04:42:11.159Z,99253.63
2022-12-12T04:44:43.425Z,99257.69
2022-12-12T04:47:12.627Z,99253.63
2022-12-12T04:49:42.404Z,99245.22
2022-12-12T04:52:13.338Z,99249.06
2022-12-12T04:54:45.828Z,99251.66
2022-12-12T04:57:21.143Z,99252.50
2022-12-12T04:59:49.724Z,99254.03
2022-12-12T05:02:23.133Z,99256.19
2022-12-12T05:04:57.172Z,99257.66
2022-12-12T05:07:39.566Z,99268.34
2022-12-12T05:10:14.309Z,99262.75
2022-12-12T05:12:44.691Z,99267.94
2022-12-12T05:15:12.907Z,99268.44
2022-12-12T05:17:44.538Z,99275.06
2022-12-12T05:20:12.512Z,99275.16
2022-12-12T05:22:40.160Z,99264.50
2022-12-12T05:25:10.036Z,99266.25
2022-12-12T05:27:38.005Z,99273.81
2022-12-12T05:30:06.936Z,99267.22
2022-12-12T05:32:34.782Z,99267.94
2022-12-12T05:35:02.441Z,99275.50
2022-12-12T05:37:30.017Z,99280.59
2022-12-12T05:39:57.613Z,99272.91
2022-12-12T05:42:26.596Z,99278.81
2022-12-12T05:44:54.176Z,99281.19
2022-12-12T05:47:21.832Z,99280.25
2022-12-12T05:49:49.465Z,99272.81
2022-12-12T05:52:17.216Z,99273.41
2022-12-12T05:54:44.851Z,99274.25
2022-12-12T05:57:12.550Z,99275.00
2022-12-12T05:59:41.456Z,99278.19
2022-12-12T06:02:09.152Z,99266.81
2022-12-12T06:04:36.778Z,99270.13
2022-12-12T06:07:04.407Z,99275.06
2022-12-12T06:09:33.315Z,99275.31
2022-12-12T06:12:00.953Z,99274.06
2022-12-12T06:14:28.668Z,99276.75
2022-12-12T06:16:58.602Z,99274.16
2022-12-12T06:19:26.254Z,99280.34
2022-12-12T06:21:53.886Z,99285.25
2022-12-12T06:24:21.434Z,99288.34
2022-12-12T06:26:49.103Z,99294.16
2022-12-12T06:29:16.743Z,99285.84
2022-12-12T06:31:44.499Z,99294.16
2022-12-12T06:34:13.467Z,99292.09
2022-12-12T06:36:41.134Z,99285.53
2022-12-12T06:39:09.714Z,99298.09
2022-12-12T06:41:37.826Z,99314.25
2022-12-12T06:44:05.762Z,99316.59
2022-12-12T06:46:33.434Z,99307.06
2022-12-12T06:49:01.114Z,99305.72
2022-12-12T06:51:33.360Z,99306.13
2022-12-12T06:54:00.953Z,99308.91
2022-12-12T06:56:28.942Z,99319.81
2022-12-12T06:58:57.044Z,99314.75
2022-12-12T07:01:25.212Z,99323.88
2022-12-12T07:03:53.906Z,99323.66
2022-12-12T07:06:23.324Z,99326.34
2022-12-12T07:08:52.670Z,99325.41
2022-12-12T07:11:22.811Z,99321.38
2022-12-12T07:13:50.800Z,99333.63
2022-12-12T07:16:20.407Z,99336.53
2022-12-12T07:18:48.549Z,99343.56
2022-12-12T07:21:18.170Z,99341.09
2022-12-12T07:23:46.094Z,99346.97
2022-12-12T07:26:17.369Z,99347.22
2022-12-12T07:28:45.058Z,99351.47
2022-12-12T07:31:14.293Z,99355.84
2022-12-12T07:33:44.377Z,99357.50
2022-12-12T07:36:13.160Z,99363.00
2022-12-12T07:38:41.043Z,99353.34
2022-12-12T07:41:10.450Z,99360.63
2022-12-12T07:43:43.700Z,99362.69
2022-12-12T07:46:16.195Z,99352.63
2022-12-12T07:48:44.558Z,99355.22
2022-12-12T07:51:13.324Z,99358.97
2022-12-12T07:53:41.304Z,99365.41
2022-12-12T07:56:10.803Z,99370.59
2022-12-12T07:58:39.877Z,99371.09
2022-12-12T08:01:14.928Z,99371.84
2022-12-12T08:03:43.171Z,99373.81
2022-12-12T08:06:11.094Z,99373.47
2022-12-12T08:08:39.083Z,99375.78
2022-12-12T08:11:07.971Z,99381.81
2022-12-12T08:13:36.669Z,99380.34
2022-12-12T08:16:08.080Z,99379.50
2022-12-12T08:18:36.327Z,99387.81
2022-12-12T08:21:08.068Z,99388.75
2022-12-12T08:23:36.803Z,99391.72
2022-12-12T08:26:06.882Z,99387.59
2022-12-12T08:28:34.453Z,99395.69
2022-12-12T08:31:02.175Z,99393.47
2022-12-12T08:33:31.327Z,99398.28
2022-12-12T08:35:58.967Z,99397.34
2022-12-12T08:38:26.765Z,99394.13
2022-12-12T08:40:54.402Z,99397.66
2022-12-12T08:43:21.960Z,99401.00
2022-12-12T08:45:49.582Z,99403.59
2022-12-12T08:48:17.218Z,99402.22
2022-12-12T08:50:46.209Z,99408.13
2022-12-12T08:53:13.856Z,99403.66
2022-12-12T08:55:42.218Z,99400.47
2022-12-12T08:58:09.873Z,99404.56
2022-12-12T09:00:37.637Z,99407.94
2022-12-12T09:03:05.661Z,99404.56
2022-12-12T09:05:33.311Z,99409.44
2022-12-12T09:08:02.321Z,99407.75
2022-12-12T09:10:30.465Z,99404.44
2022-12-12T09:12:58.176Z,99417.81
2022-12-12T09:15:25.796Z,99417.09
2022-12-12T09:17:53.412Z,99423.38
2022-12-12T09:20:21.005Z,99416.91
2022-12-12T09:22:48.621Z,99418.66
2022-12-12T09:25:17.659Z,99422.75
2022-12-12T09:27:45.270Z,99424.66
2022-12-12T09:30:13.820Z,99427.72
2022-12-12T09:32:45.239Z,99410.34
2022-12-12T09:37:41.103Z,99414.41
2022-12-12T09:40:12.046Z,99415.88
2022-12-12T09:42:48.907Z,99418.59
2022-12-12T09:45:17.477Z,99415.41
2022-12-12T09:47:48.495Z,99415.75
2022-12-12T09:50:24.351Z,99409.56
2022-12-12T09:52:53.596Z,99412.00
2022-12-12T09:55:35.583Z,99411.63
2022-12-12T09:58:09.695Z,99407.97
2022-12-12T10:00:41.093Z,99402.91
2022-12-12T10:03:28.938Z,99407.25
2022-12-12T10:06:28.520Z,99404.41
2022-12-12T10:09:07.220Z,99394.19
2022-12-12T10:11:54.811Z,99388.88
2022-12-12T10:14:28.929Z,99391.28
2022-12-12T10:16:59.539Z,99386.97
2022-12-12T10:19:31.194Z,99393.59
2022-12-12T10:22:05.464Z,99397.41
2022-12-12T10:24:38.080Z,99393.56
2022-12-12T10:27:11.385Z,99399.38
2022-12-12T10:29:42.461Z,99399.28
2022-12-12T10:32:22.035Z,99391.00
2022-12-12T10:35:03.360Z,99391.06
2022-12-12T10:37:42.564Z,99398.69
2022-12-12T10:40:25.220Z,99393.34
2022-12-12T10:42:58.908Z,99386.44
2022-12-12T10:45:49.221Z,99384.66
2022-12-12T10:48:16.932Z,99386.16
2022-12-12T10:50:46.067Z,99386.22
2022-12-12T10:53:14.044Z,99395.66
2022-12-12T10:55:48.846Z,99391.19
2022-12-12T10:58:18.154Z,99391.03
2022-12-12T11:00:49.526Z,99391.38
2022-12-12T11:03:26.482Z,99394.06
2022-12-12T11:05:55.027Z,99387.28
2022-12-12T11:08:27.880Z,99383.22
2022-12-12T11:11:08.320Z,99378.22
2022-12-12T11:13:47.250Z,99375.28
2022-12-12T11:16:19.488Z,99367.09
2022-12-12T11:19:02.362Z,99370.47
2022-12-12T11:21:32.655Z,99373.97
2022-12-12T11:24:01.461Z,99367.03
2022-12-12T11:26:30.111Z,99372.75
2022-12-12T11:29:00.792Z,99368.47
2022-12-12T11:31:35.273Z,99374.50
2022-12-12T11:34:06.807Z,99379.88
2022-12-12T11:36:37.324Z,99387.97
2022-12-12T11:39:16.325Z,99392.94
2022-12-12T11:41:59.321Z,99389.81
2022-12-12T11:44:31.518Z,99395.28
2022-12-12T11:47:21.326Z,99393.88
2022-12-12T11:49:50.776Z,99384.69
2022-12-12T11:52:20.237Z,99384.47
2022-12-12T11:54:48.109Z,99387.03
2022-12-12T11:57:30.169Z,99387.66
2022-12-12T12:00:12.061Z,99376.75
2022-12-12T12:03:18.716Z,99386.16
2022-12-12T12:06:00.544Z,99372.97
2022-12-12T12:08:41.928Z,99373.44
2022-12-12T12:11:20.387Z,99375.28
2022-12-12T12:14:03.543Z,99373.56
2022-12-12T12:16:41.499Z,99366.09
2022-12-12T12:19:16.931Z,99376.56
2022-12-12T12:21:58.192Z,99369.91
2022-12-12T12:24:50.249Z,99360.56
2022-12-12T12:27:26.913Z,99364.66
2022-12-12T12:30:30.351Z,99364.84
2022-12-12T12:33:12.528Z,99370.16
2022-12-12T12:35:54.111Z,99367.09
2022-12-12T12:38:27.707Z,99365.06
2022-12-12T12:41:20.614Z,99360.19
2022-12-12T12:44:02.401Z,99358.91
2022-12-12T12:46:40.751Z,99367.44
2022-12-12T12:49:17.637Z,99361.81
2022-12-12T12:51:50.925Z,99359.66
2022-12-12T12:54:25.143Z,99350.91
2022-12-12T12:56:59.830Z,99353.28
2022-12-12T12:59:34.096Z,99361.00
2022-12-12T13:02:10.816Z,99354.16
2022-12-12T13:04:46.612Z,99366.91
2022-12-12T13:07:22.877Z,99359.56
2022-12-12T13:09:58.062Z,99360.56
2022-12-12T13:12:30.635Z,99360.88
2022-12-12T13:15:03.095Z,99361.28
2022-12-12T13:17:45.267Z,99369.19
2022-12-12T13:20:17.106Z,99364.22
2022-12-12T13:22:54.851Z,99360.66
2022-12-12T13:25:34.157Z,99361.78
2022-12-12T13:28:06.885Z,99359.59
2022-12-12T13:30:49.670Z,99353.13
2022-12-12T13:33:37.616Z,99351.16
2022-12-12T13:36:13.600Z,99350.16
2022-12-12T13:38:46.430Z,99350.97
2022-12-12T13:41:15.392Z,99346.91
2022-12-12T13:43:47.120Z,99345.69
2022-12-12T13:46:37.013Z,99342.97
2022-12-12T13:49:29.570Z,99340.59
2022-12-12T13:52:29.203Z,99331.31
2022-12-12T13:55:19.074Z,99333.41
2022-12-12T13:58:33.055Z,99335.88
2022-12-12T14:01:40.122Z,99339.56
2022-12-12T14:04:26.171Z,99332.88
2022-12-12T14:07:01.738Z,99334.41
2022-12-12T14:09:47.051Z,99325.00
2022-12-12T14:12:21.983Z,99329.50
2022-12-12T14:14:58.210Z,99328.19
2022-12-12T14:17:30.157Z,99326.03
2022-12-12T14:19:59.916Z,99329.69
2022-12-12T14:22:28.336Z,99326.06
2022-12-12T14:25:08.443Z,99333.16
2022-12-12T14:28:03.209Z,99324.41
2022-12-12T14:31:18.572Z,99338.69
2022-12-12T14:34:18.140Z,99330.63
2022-12-12T14:37:22.526Z,99339.56
2022-12-12T14:40:00.340Z,99338.53
2022-12-12T14:43:19.777Z,99345.28
2022-12-12T14:45:27.189Z,99346.75
2022-12-12T14:48:14.977Z,99352.03
2022-12-12T14:50:48.904Z,99352.69
2022-12-12T14:53:19.812Z,99358.63
2022-12-12T14:55:53.540Z,99353.16
2022-12-12T14:58:23.592Z,99358.38
2022-12-12T15:00:53.879Z,99357.66
2022-12-12T15:03:27.332Z,99356.84
2022-12-12T15:06:31.248Z,99350.25
2022-12-12T15:09:09.555Z,99346.66
2022-12-12T15:11:37.228Z,99346.78
2022-12-12T15:14:05.262Z,99338.97
2022-12-12T15:16:46.063Z,99339.22
2022-12-12T15:19:19.375Z,99338.03
2022-12-12T15:21:48.874Z,99332.34
2022-12-12T15:24:22.712Z,99332.69
2022-12-12T15:26:52.718Z,99333.66
2022-12-12T15:29:23.891Z,99322.66
2022-12-12T15:31:59.649Z,99328.47
2022-12-12T15:34:33.393Z,99327.28
2022-12-12T15:37:27.308Z,99322.44
2022-12-12T15:40:21.160Z,99321.50
2022-12-12T15:42:54.358Z,99328.69
2022-12-12T15:45:26.836Z,99340.97
2022-12-12T15:47:56.597Z,99344.34
2022-12-12T15:50:28.217Z,99354.72
2022-12-12T15:53:04.367Z,99353.88
2022-12-12T15:55:32.896Z,99360.47
2022-12-12T15:58:00.686Z,99364.03
2022-12-12T16:00:33.252Z,99357.63
2022-12-12T16:03:03.990Z,99359.63
2022-12-12T16:05:33.586Z,99354.44
2022-12-12T16:08:38.222Z,99346.44
2022-12-12T16:11:08.323Z,99352.72
2022-12-12T16:13:38.438Z,99357.72
2022-12-12T16:16:43.429Z,99354.13
2022-12-12T16:19:37.137Z,99361.28
2022-12-12T16:22:06.599Z,99359.19
2022-12-12T16:24:46.787Z,99372.00
2022-12-12T16:27:15.451Z,99365.56
2022-12-12T16:29:43.282Z,99356.66
2022-12-12T16:32:14.776Z,99361.06
2022-12-12T16:34:42.990Z,99361.97
2022-12-12T16:37:15.139Z,99375.97
2022-12-12T16:39:44.193Z,99367.16
2022-12-12T16:42:16.240Z,99374.63
2022-12-12T16:44:44.704Z,99376.63
2022-12-12T16:47:16.788Z,99377.31
2022-12-12T16:49:44.708Z,99375.34
2022-12-12T16:52:14.298Z,99375.69
2022-12-12T16:54:42.084Z,99372.25
2022-12-12T16:57:11.248Z,99378.03
2022-12-12T16:59:39.374Z,99371.19
2022-12-12T17:02:18.331Z,99374.50
2022-12-12T17:04:45.924Z,99379.47
2022-12-12T17:07:13.867Z,99382.59
2022-12-12T17:09:41.532Z,99385.47
2022-12-12T17:12:11.636Z,99387.16
2022-12-12T17:14:40.595Z,99388.59
2022-12-12T17:17:08.622Z,99396.81
2022-12-12T17:19:36.378Z,99395.22
2022-12-12T17:22:04.716Z,99400.75
2022-12-12T17:24:34.623Z,99393.38
2022-12-12T17:27:02.451Z,99393.38
2022-12-12T17:29:30.031Z,99390.97
2022-12-12T17:31:59.170Z,99390.16
2022-12-12T17:34:26.881Z,99383.47
2022-12-12T17:36:54.503Z,99374.47
2022-12-12T17:39:22.865Z,99379.56
2022-12-12T17:41:50.487Z,99371.25
2022-12-12T17:44:18.378Z,99368.38
2022-12-12T17:46:46.149Z,99374.09
2022-12-12T17:49:15.037Z,99375.34
2022-12-12T17:51:42.770Z,99371.47
2022-12-12T17:54:10.494Z,99376.72
2022-12-12T17:56:38.189Z,99378.88
2022-12-12T17:59:08.182Z,99376.81
2022-12-12T18:01:36.294Z,99377.13
2022-12-12T18:04:05.395Z,99376.50
2022-12-12T18:06:35.974Z,99380.56
2022-12-12T18:09:04.891Z,99372.69
2022-12-12T18:11:35.605Z,99365.84
2022-12-12T18:14:04.963Z,99375.47
2022-12-12T18:16:34.302Z,99372.69
2022-12-12T18:19:03.405Z,99372.72
2022-12-12T18:21:59.639Z,99372.38
2022-12-12T18:24:23.779Z,99374.13
2022-12-12T18:26:52.862Z,99373.38
2022-12-12T18:29:21.020Z,99375.34
2022-12-12T18:31:48.810Z,99363.78
2022-12-12T18:34:16.917Z,99367.28
2022-12-12T18:36:44.871Z,99363.94
2022-12-12T18:39:12.891Z,99368.50
2022-12-12T18:41:41.990Z,99375.78
2022-12-12T18:44:13.014Z,99367.56
2022-12-12T18:46:43.476Z,99372.75
2022-12-12T18:49:13.632Z,99374.31
2022-12-12T18:51:41.803Z,99367.75
2022-12-12T18:54:14.732Z,99369.97
2022-12-12T18:56:45.688Z,99376.25
2022-12-12T18:59:14.470Z,99381.88
2022-12-12T19:01:42.348Z,99385.47
2022-12-12T19:04:14.118Z,99390.56
2022-12-12T19:06:44.384Z,99389.38
2022-12-12T19:09:15.096Z,99390.19
2022-12-12T19:11:44.648Z,99387.72
2022-12-12T19:14:15.549Z,99384.72
2022-12-12T19:16:44.259Z,99394.59
2022-12-12T19:19:12.719Z,99386.22
2022-12-12T19:21:40.872Z,99382.78
2022-12-12T19:24:12.075Z,99382.03
2022-12-12T19:26:41.114Z,99380.41
2022-12-12T19:29:13.678Z,99385.09
2022-12-12T19:31:41.434Z,99388.19
2022-12-12T19:34:11.608Z,99388.84
2022-12-12T19:36:40.291Z,99378.28
2022-12-12T19:39:08.986Z,99376.38
2022-12-12T19:41:38.361Z,99377.31
2022-12-12T19:44:08.906Z,99379.31
2022-12-12T19:46:37.883Z,99383.81
2022-12-12T19:49:08.708Z,99385.41
2022-12-12T19:51:39.281Z,99385.00
2022-12-12T19:54:09.983Z,99387.09
2022-12-12T19:56:40.857Z,99384.28
2022-12-12T19:59:09.542Z,99381.22
2022-12-12T20:01:39.015Z,99380.28
2022-12-12T20:04:09.514Z,99385.78
2022-12-12T20:06:44.665Z,99385.72
2022-12-12T20:09:13.764Z,99389.56
2022-12-12T20:11:43.433Z,99379.91
2022-12-12T20:14:14.619Z,99386.94
2022-12-12T20:16:44.108Z,99383.19
2022-12-12T20:19:13.645Z,99379.69
2022-12-12T20:22:00.782Z,99387.25
2022-12-12T20:24:29.981Z,99390.09
2022-12-12T20:26:59.417Z,99387.00
2022-12-12T20:29:27.426Z,99389.41
2022-12-12T20:31:56.924Z,99386.94
2022-12-12T20:34:25.275Z,99380.09
2022-12-12T20:36:55.526Z,99383.50
2022-12-12T20:39:24.737Z,99376.34
2022-12-12T20:41:54.211Z,99374.75
2022-12-12T20:44:22.413Z,99381.34
2022-12-12T20:46:49.995Z,99380.59
2022-12-12T20:49:22.349Z,99381.34
2022-12-12T20:51:58.637Z,99379.53
2022-12-12T20:54:29.422Z,99384.44
2022-12-12T20:56:58.432Z,99374.69
2022-12-12T20:59:26.481Z,99372.28
2022-12-12T21:01:54.581Z,99371.38
2022-12-12T21:04:24.100Z,99373.13
2022-12-12T21:06:52.303Z,99367.13
2022-12-12T21:09:25.974Z,99371.19
2022-12-12T21:11:55.377Z,99368.53
2022-12-12T21:14:23.273Z,99367.06
2022-12-12T21:16:51.963Z,99371.03
2022-12-12T21:19:19.817Z,99359.88
2022-12-12T21:21:48.788Z,99364.06
2022-12-12T21:24:17.953Z,99364.63
2022-12-12T21:26:45.768Z,99366.47
2022-12-12T21:29:13.988Z,99355.47
2022-12-12T21:31:49.952Z,99358.88
2022-12-12T21:34:20.475Z,99360.75
2022-12-12T21:36:51.057Z,99359.72
2022-12-12T21:39:18.834Z,99354.06
2022-12-12T21:41:47.063Z,99355.66
2022-12-12T21:44:14.677Z,99349.47
2022-12-12T21:46:44.023Z,99353.16
2022-12-12T21:49:25.891Z,99352.56
2022-12-12T21:51:55.681Z,99353.72
2022-12-12T21:54:23.581Z,99354.13
2022-12-12T21:56:51.174Z,99345.31
2022-12-12T21:59:18.781Z,99354.66
2022-12-12T22:01:46.380Z,99350.78
2022-12-12T22:04:14.257Z,99353.31
2022-12-12T22:06:41.824Z,99343.22
2022-12-12T22:09:12.484Z,99347.50
2022-12-12T22:11:50.074Z,99341.72
2022-12-12T22:14:21.717Z,99345.56
2022-12-12T22:16:49.910Z,99344.81
2022-12-12T22:19:18.395Z,99345.75
2022-12-12T22:21:47.449Z,99351.38
2022-12-12T22:24:17.042Z,99352.78
2022-12-12T22:26:46.748Z,99345.41
2022-12-12T22:29:16.182Z,99345.97
2022-12-12T22:31:45.775Z,99341.38
2022-12-12T22:34:15.570Z,99351.88
2022-12-12T22:36:43.948Z,99348.66
2022-12-12T22:39:16.805Z,99345.03
2022-12-12T22:41:45.019Z,99339.72
2022-12-12T22:44:16.564Z,99335.63
2022-12-12T22:46:44.939Z,99343.13
2022-12-12T22:49:14.283Z,99343.53
2022-12-12T22:51:42.547Z,99335.97
2022-12-12T22:54:10.351Z,99335.78
2022-12-12T22:56:40.684Z,99336.75
2022-12-12T22:59:09.696Z,99337.75
2022-12-12T23:01:37.286Z,99338.09
2022-12-12T23:04:05.477Z,99336.69
2022-12-12T23:06:34.808Z,99328.09
2022-12-12T23:09:05.297Z,99332.94
2022-12-12T23:11:34.181Z,99333.25
2022-12-12T23:14:07.202Z,99329.19
2022-12-12T23:16:35.995Z,99322.28
2022-12-12T23:19:05.422Z,99325.53
2022-12-12T23:21:33.571Z,99324.28
2022-12-12T23:24:01.244Z,99311.28
2022-12-12T23:26:30.605Z,99309.88
2022-12-12T23:28:59.033Z,99304.91
2022-12-12T23:31:29.575Z,99301.81
2022-12-12T23:33:59.423Z,99297.16
2022-12-12T23:36:28.295Z,99302.41
2022-12-12T23:38:56.547Z,99299.00
2022-12-12T23:41:24.660Z,99300.75
2022-12-12T23:43:52.649Z,99290.19
2022-12-12T23:46:29.201Z,99293.47
2022-12-12T23:49:00.181Z,99289.13
2022-12-12T23:51:30.893Z,99293.19
2022-12-12T23:53:59.655Z,99285.22
2022-12-12T23:56:28.673Z,99289.56
2022-12-12T23:58:58.111Z,99285.63
